UASS

Semipalatinsk Airport

Semey, Kazakhstan
TAF UASS 170801Z 1709/1718 27005MPS 9999 -SHSN OVC020CB TEMPO 1709/1715 1000 SHSN BKN003 OVC015CB
Issued Valid From Valid To
Dec-17 @ 08:01 UTC
(4 hours ago)
Dec-17 @ 09:00 UTC
(3 hours ago)
Dec-17 @ 18:00 UTC
(in 6 hours)
Dec-17 @ 09:00 to Dec-17 @ 18:00
TAF UASS 170801Z 1709/1718 27005MPS 9999 -SHSN OVC020CB
Wind Visibility Clouds Conditions
270° at 10 knots 10,000+ meters
  • Overcast at 2,000' AGL
  • Light Snow
Temporary Dec-17 @ 09:00 to Dec-17 @ 15:00
TEMPO 1709/1715 1000 SHSN BKN003 OVC015CB
Visibility Clouds Conditions
998 meters
  • Broken at 300' AGL
  • Overcast at 1,500' AGL
  • Snow
TAF UASS 170801Z 1709/1718 27005MPS 9999 -SHSN OVC020CB TEMPO 1709/1715 1000 SHSN BKN003 OVC015CB
Issued Dec-17 @ 08:01 UTC
(4 hours ago)
Valid From Dec-17 @ 09:00 UTC
(3 hours ago)
Valid To Dec-17 @ 18:00 UTC
(in 6 hours)
Dec-17 @ 09:00 - Dec-17 @ 18:00
Wind Visibility
270° at 10 knots 10,000+ meters
Clouds
  • Overcast at 2,000' AGL
Conditions
  • Light Snow
Temporary Dec-17 @ 09:00 - Dec-17 @ 15:00
Clouds
  • Broken at 300' AGL
  • Overcast at 1,500' AGL
Conditions
  • Snow